Time;durP1;ratioP1;P1;durP2;ratioP2;P2;SDS_P1;SDS_P2;PMS_P1;PMS_P2;Temp;Humidity;BMP_temperature;BMP_pressure;BME280_temperature;BME280_humidity;BME280_pressure;Samples;Min_cycle;Max_cycle;Signal;HPM_P1;HPM_P2
2022/07/14 00:02:17;;;;;;;1999.90;999.90;;;;;;;17.33;65.91;99548.88;8279925;28;20112;-77
2022/07/14 00:06:18;;;;;;;1999.90;999.90;;;;;;;17.30;67.50;99550.75;8275499;28;20049;-77
2022/07/14 00:10:20;;;;;;;1999.90;999.90;;;;;;;17.18;68.03;99555.44;8266812;28;20041;-78
2022/07/14 00:14:21;;;;;;;1999.90;999.90;;;;;;;17.18;67.94;99549.31;8267355;28;20558;-77
2022/07/14 00:18:23;;;;;;;1999.90;999.90;;;;;;;17.14;67.92;99548.56;8281284;28;20300;-77
2022/07/14 00:22:25;;;;;;;1999.90;999.90;;;;;;;17.07;68.00;99548.78;8263385;28;20042;-78
2022/07/14 00:26:28;;;;;;;1999.90;999.90;;;;;;;16.97;68.38;99536.81;8278583;28;20366;-78
2022/07/14 00:30:30;;;;;;;1999.90;999.90;;;;;;;16.96;67.85;99542.97;8265102;28;20049;-78
2022/07/14 00:34:31;;;;;;;1999.90;999.90;;;;;;;16.85;67.81;99545.88;8263352;28;20056;-77
2022/07/14 00:38:33;;;;;;;1999.90;999.90;;;;;;;16.81;67.42;99537.25;8260130;28;20069;-78
2022/07/14 00:42:40;;;;;;;1999.90;999.90;;;;;;;16.71;67.64;99533.16;8273774;28;20076;-78
2022/07/14 00:46:42;;;;;;;1999.90;999.90;;;;;;;16.61;67.61;99535.13;8284417;28;20121;-78
2022/07/14 00:50:44;;;;;;;1999.90;999.90;;;;;;;16.53;68.24;99534.50;8286559;28;20073;-77
2022/07/14 00:54:47;;;;;;;1999.90;999.90;;;;;;;16.51;68.23;99531.00;8248157;28;20046;-77
2022/07/14 00:58:48;;;;;;;1999.90;999.90;;;;;;;16.38;69.45;99520.91;8244807;28;20049;-78
2022/07/14 01:02:50;;;;;;;1999.90;999.90;;;;;;;16.27;70.15;99521.19;8281873;28;20451;-77
2022/07/14 01:06:51;;;;;;;1999.90;999.90;;;;;;;16.26;69.77;99522.06;8252328;28;20104;-78
2022/07/14 01:10:53;;;;;;;1999.90;999.90;;;;;;;16.13;70.00;99516.28;8285671;28;20394;-78
2022/07/14 01:14:54;;;;;;;1999.90;999.90;;;;;;;16.04;70.57;99511.28;8267856;28;20042;-78
2022/07/14 01:18:56;;;;;;;1999.90;999.90;;;;;;;16.04;71.38;99521.75;8266803;28;20045;-78
2022/07/14 01:22:58;;;;;;;1999.90;999.90;;;;;;;16.04;71.34;99526.13;8280619;28;20061;-77
2022/07/14 01:26:59;;;;;;;1999.90;999.90;;;;;;;16.04;71.76;99523.53;8261505;28;20292;-77
2022/07/14 01:31:01;;;;;;;1999.90;999.90;;;;;;;16.05;72.00;99520.00;8242309;28;20044;-77
2022/07/14 01:35:04;;;;;;;1999.90;999.90;;;;;;;16.08;71.88;99517.31;8266074;28;20065;-77
2022/07/14 01:39:06;;;;;;;1999.90;999.90;;;;;;;15.99;72.28;99515.78;8267809;28;20061;-77
2022/07/14 01:43:07;;;;;;;1999.90;999.90;;;;;;;15.94;72.63;99509.78;8245983;28;20065;-77
2022/07/14 01:47:09;;;;;;;1999.90;999.90;;;;;;;15.91;73.02;99515.09;8252660;28;20786;-77
2022/07/14 01:51:11;;;;;;;1999.90;999.90;;;;;;;15.86;72.87;99520.44;8248190;28;20037;-77
2022/07/14 01:55:12;;;;;;;1999.90;999.90;;;;;;;15.82;72.81;99515.31;8245527;28;20038;-78
2022/07/14 01:59:14;;;;;;;1999.90;999.90;;;;;;;15.78;73.25;99511.03;8284626;28;20050;-78
2022/07/14 02:03:15;;;;;;;1999.90;999.90;;;;;;;15.68;73.48;99506.03;8286115;28;20066;-77
2022/07/14 02:07:17;;;;;;;1999.90;999.90;;;;;;;15.62;73.56;99500.94;8246657;28;20042;-77
2022/07/14 02:15:39;;;;;;;1999.90;999.90;;;;;;;15.50;74.16;99500.31;8284929;28;20038;-77
2022/07/14 02:19:40;;;;;;;1999.90;999.90;;;;;;;15.50;74.85;99498.56;8268611;28;20057;-77
2022/07/14 02:23:42;;;;;;;1999.90;999.90;;;;;;;15.48;74.78;99496.88;8287072;28;20426;-77
2022/07/14 02:27:43;;;;;;;1999.90;999.90;;;;;;;15.41;74.94;99498.75;8284757;28;20081;-78
2022/07/14 02:31:46;;;;;;;1999.90;999.90;;;;;;;15.31;75.44;99497.25;8245027;28;20050;-77
2022/07/14 02:35:48;;;;;;;1999.90;999.90;;;;;;;15.24;75.76;99500.88;8262257;28;20081;-77
2022/07/14 02:39:49;;;;;;;1999.90;999.90;;;;;;;15.11;76.17;99500.31;8282986;28;20110;-77
2022/07/14 02:43:50;;;;;;;1999.90;999.90;;;;;;;15.05;76.14;99501.25;8291521;28;20141;-78
2022/07/14 02:47:52;;;;;;;1999.90;999.90;;;;;;;15.00;76.37;99503.13;8269499;28;20050;-78
2022/07/14 02:51:53;;;;;;;1999.90;999.90;;;;;;;14.99;77.00;99495.31;8293362;28;20103;-78
2022/07/14 02:55:55;;;;;;;1999.90;999.90;;;;;;;14.97;76.93;99492.75;8269804;28;20039;-77
2022/07/14 02:59:56;;;;;;;1999.90;999.90;;;;;;;15.03;76.72;99491.75;8259467;28;20045;-78
2022/07/14 03:03:59;;;;;;;1999.90;999.90;;;;;;;15.01;76.30;99510.06;8261766;28;20042;-77
2022/07/14 03:08:00;;;;;;;1999.90;999.90;;;;;;;14.96;77.04;99505.84;8272804;28;20067;-77
2022/07/14 03:12:02;;;;;;;1999.90;999.90;;;;;;;14.96;77.31;99508.47;8261585;28;20062;-77
2022/07/14 03:16:08;;;;;;;1999.90;999.90;;;;;;;14.89;77.78;99502.47;8261888;28;20046;-77
2022/07/14 03:20:10;;;;;;;1999.90;999.90;;;;;;;14.85;77.42;99497.34;8254934;28;20038;-77
2022/07/14 03:24:11;;;;;;;1999.90;999.90;;;;;;;14.79;77.25;99499.19;8276194;28;20057;-77
2022/07/14 03:28:13;;;;;;;1999.90;999.90;;;;;;;14.65;78.08;99505.56;8248005;28;20346;-77
2022/07/14 03:32:15;;;;;;;1999.90;999.90;;;;;;;14.59;79.37;99508.31;8280939;28;20473;-77
2022/07/14 03:36:18;;;;;;;1999.90;999.90;;;;;;;14.59;79.51;99509.19;8276975;28;20565;-77
2022/07/14 03:40:20;;;;;;;1999.90;999.90;;;;;;;14.58;79.71;99517.06;8262380;28;20046;-78
2022/07/14 03:44:22;;;;;;;1999.90;999.90;;;;;;;14.58;80.19;99510.06;8255572;28;20082;-77
2022/07/14 03:48:24;;;;;;;1999.90;999.90;;;;;;;14.57;79.71;99512.72;8266407;28;20046;-77
2022/07/14 03:52:25;;;;;;;1999.90;999.90;;;;;;;14.56;79.84;99506.63;8263854;28;20117;-77
2022/07/14 03:56:27;;;;;;;1999.90;999.90;;;;;;;14.60;79.94;99495.22;8265966;28;20042;-76
2022/07/14 04:00:28;;;;;;;1999.90;999.90;;;;;;;14.65;80.08;99502.97;8261951;28;20621;-77
2022/07/14 04:04:30;;;;;;;1999.90;999.90;;;;;;;14.69;80.70;99488.94;8264056;28;20045;-77
2022/07/14 04:08:31;;;;;;;1999.90;999.90;;;;;;;14.78;81.19;99492.25;8265534;28;20560;-76
2022/07/14 04:12:33;;;;;;;1999.90;999.90;;;;;;;14.87;80.77;99490.31;8278544;28;20046;-78
2022/07/14 04:16:39;;;;;;;1999.90;999.90;;;;;;;15.00;80.51;99494.41;8247396;28;20045;-78
2022/07/14 04:20:47;;;;;;;1999.90;999.90;;;;;;;15.13;80.27;99506.34;8275498;28;20093;-78
2022/07/14 04:24:49;;;;;;;1999.90;999.90;;;;;;;15.14;79.71;99505.47;8282939;28;20066;-78
2022/07/14 04:28:50;;;;;;;1999.90;999.90;;;;;;;15.26;79.38;99504.31;8258046;28;20641;-77
2022/07/14 04:32:53;;;;;;;1999.90;999.90;;;;;;;15.34;79.28;99499.81;8278579;28;20677;-77
2022/07/14 04:36:54;;;;;;;1999.90;999.90;;;;;;;15.45;79.14;99502.19;8281829;28;20128;-77
2022/07/14 04:40:56;;;;;;;1999.90;999.90;;;;;;;15.58;78.23;99494.00;8282040;28;20099;-77
2022/07/14 04:44:57;;;;;;;1999.90;999.90;;;;;;;15.68;78.44;99495.56;8262301;28;20077;-78
2022/07/14 04:53:19;;;;;;;1999.90;999.90;;;;;;;15.84;77.38;99497.81;8282570;28;20384;-77
2022/07/14 04:57:20;;;;;;;1999.90;999.90;;;;;;;15.96;76.98;99506.22;8279700;28;20077;-78
2022/07/14 05:01:22;;;;;;;1999.90;999.90;;;;;;;16.12;76.80;99497.97;8283614;28;20078;-77
2022/07/14 05:05:24;;;;;;;1999.90;999.90;;;;;;;16.26;76.40;99494.13;8276543;28;20046;-77
2022/07/14 05:09:26;;;;;;;1999.90;999.90;;;;;;;16.48;76.00;99490.94;8259122;28;20442;-78
2022/07/14 05:13:27;;;;;;;1999.90;999.90;;;;;;;16.68;74.91;99485.16;8277620;28;20873;-77
2022/07/14 05:17:29;;;;;;;1999.90;999.90;;;;;;;16.86;72.86;99484.66;8276671;28;20042;-78
2022/07/14 05:21:31;;;;;;;1999.90;999.90;;;;;;;17.10;71.50;99489.22;8254821;28;20057;-76
2022/07/14 05:25:33;;;;;;;1999.90;999.90;;;;;;;17.37;71.45;99502.41;8274251;28;20054;-76
2022/07/14 05:29:34;;;;;;;1999.90;999.90;;;;;;;17.59;71.90;99492.94;8279249;28;20498;-78
2022/07/14 05:33:36;;;;;;;1999.90;999.90;;;;;;;17.75;71.23;99488.97;8243746;28;20073;-77
2022/07/14 05:37:37;;;;;;;1999.90;999.90;;;;;;;17.82;70.71;99489.66;8277049;28;20085;-77
2022/07/14 05:41:39;;;;;;;1999.90;999.90;;;;;;;18.01;70.86;99496.03;8255998;28;20062;-77
2022/07/14 05:45:40;;;;;;;1999.90;999.90;;;;;;;18.32;69.74;99492.38;8246262;28;20110;-77
2022/07/14 05:49:43;;;;;;;1999.90;999.90;;;;;;;18.56;68.63;99483.63;8265228;28;20081;-78
2022/07/14 05:53:45;;;;;;;;;;;;;;;18.76;67.17;99480.31;8265638;28;20078;-77
2022/07/14 05:57:46;;;;;;;1999.90;999.90;;;;;;;19.17;66.08;99476.13;8249405;28;19983;-78
2022/07/14 06:01:48;;;;;;;1999.90;999.90;;;;;;;19.73;64.10;99485.38;8251442;28;20060;-78
2022/07/14 06:05:50;;;;;;;1999.90;999.90;;;;;;;20.27;62.71;99484.88;8279932;28;20173;-78
2022/07/14 06:09:52;;;;;;;1999.90;999.90;;;;;;;20.96;60.60;99477.47;8260767;28;20045;-77
2022/07/14 06:13:53;;;;;;;1999.90;999.90;;;;;;;21.59;58.44;99470.16;8260339;28;20445;-78
2022/07/14 06:17:55;;;;;;;1999.90;999.90;;;;;;;22.28;55.74;99458.84;8264683;28;20056;-78
2022/07/14 06:21:56;;;;;;;1999.90;999.90;;;;;;;22.99;53.73;99466.59;8256003;28;20129;-78
2022/07/14 06:25:58;;;;;;;1999.90;999.90;;;;;;;23.39;50.95;99459.97;8282249;28;20120;-77
2022/07/14 06:30:04;;;;;;;1999.90;999.90;;;;;;;22.93;50.21;99451.88;8260340;28;20042;-78
2022/07/14 06:34:05;;;;;;;1999.90;999.90;;;;;;;23.45;49.48;99456.97;8259190;28;20112;-78
2022/07/14 06:38:07;;;;;;;1999.90;999.90;;;;;;;23.62;50.21;99454.25;8264242;28;20064;-78
2022/07/14 06:42:09;;;;;;;1999.90;999.90;;;;;;;24.34;47.74;99450.94;8249804;28;20590;-77
2022/07/14 06:46:14;;;;;;;;;;;;;;;24.57;45.20;99457.50;8267639;28;20042;-77
2022/07/14 06:50:16;;;;;;;1999.90;999.90;;;;;;;25.21;44.01;99453.53;8247235;28;20376;-78
2022/07/14 06:54:18;;;;;;;1999.90;999.90;;;;;;;25.63;43.76;99440.22;8264972;28;20041;-78
2022/07/14 06:58:19;;;;;;;1999.90;999.90;;;;;;;25.83;43.50;99439.78;8261617;28;20041;-78
2022/07/14 07:02:21;;;;;;;1999.90;999.90;;;;;;;25.86;44.58;99444.94;8246712;28;20509;-77
2022/07/14 07:10:44;;;;;;;1999.90;999.90;;;;;;;26.47;44.51;99446.97;8279302;28;20045;-78
2022/07/14 07:14:45;;;;;;;;;;;;;;;26.63;44.00;99456.59;8269775;28;20054;-78
2022/07/14 07:18:46;;;;;;;1999.90;999.90;;;;;;;26.66;42.52;99454.56;8264966;28;19929;-78
2022/07/14 07:22:48;;;;;;;1999.90;999.90;;;;;;;26.79;42.15;99457.22;8277196;28;20108;-78
2022/07/14 07:26:50;;;;;;;;;;;;;;;27.34;41.56;99453.31;8249235;28;20069;-78
2022/07/14 07:30:51;;;;;;;1999.90;999.90;;;;;;;27.85;39.85;99447.81;8261750;28;20008;-78
2022/07/14 07:34:54;;;;;;;1999.90;999.90;;;;;;;28.05;41.28;99447.16;8249687;28;20144;-79
2022/07/14 07:38:55;;;;;;;1999.90;999.90;;;;;;;28.20;40.55;99443.34;8260678;28;20848;-79
2022/07/14 07:42:57;;;;;;;1999.90;999.90;;;;;;;28.50;39.39;99440.13;8263708;28;20045;-77
2022/07/14 07:46:58;;;;;;;1999.90;999.90;;;;;;;28.80;38.15;99431.56;8274720;28;20038;-78
2022/07/14 07:51:01;;;;;;;1999.90;999.90;;;;;;;28.99;35.84;99430.13;8260580;28;20509;-78
2022/07/14 07:55:08;;;;;;;1999.90;999.90;;;;;;;29.33;35.48;99436.28;8271953;28;20077;-78
2022/07/14 07:59:26;;;;;;;1999.90;999.90;;;;;;;29.56;36.96;99434.44;8251786;28;20104;-78
2022/07/14 08:03:28;;;;;;;1999.90;999.90;;;;;;;29.93;36.61;99433.06;8258225;28;20125;-78
2022/07/14 08:07:30;;;;;;;1999.90;999.90;;;;;;;30.14;34.52;99422.41;8262928;28;20045;-78
2022/07/14 08:11:32;;;;;;;1999.90;999.90;;;;;;;30.26;34.49;99409.81;8289666;28;20161;-78
2022/07/14 08:15:34;;;;;;;1999.90;999.90;;;;;;;30.26;34.29;99413.34;8245010;28;20037;-78
2022/07/14 08:19:36;;;;;;;1999.90;999.90;;;;;;;29.86;34.55;99406.94;8270000;28;20042;-78
2022/07/14 08:23:38;;;;;;;1999.90;999.90;;;;;;;30.03;34.56;99409.91;8279394;28;20580;-77
2022/07/14 08:27:39;;;;;;;1999.90;999.90;;;;;;;30.11;34.72;99406.59;8279375;28;20103;-78
2022/07/14 08:31:41;;;;;;;1999.90;999.90;;;;;;;30.33;33.79;99401.09;8285090;28;20050;-78
2022/07/14 08:35:42;;;;;;;1999.90;999.90;;;;;;;30.68;33.53;99402.59;8249293;28;20137;-78
2022/07/14 08:39:44;;;;;;;1999.90;999.90;;;;;;;30.90;32.98;99396.19;8269330;28;20042;-78
2022/07/14 08:43:48;;;;;;;1999.90;999.90;;;;;;;30.43;33.66;99397.63;8264643;28;20064;-77
2022/07/14 08:47:50;;;;;;;1999.90;999.90;;;;;;;30.56;34.08;99398.28;8257529;28;20046;-77
2022/07/14 08:51:52;;;;;;;1999.90;999.90;;;;;;;30.45;34.33;99387.63;8260335;28;20065;-77
2022/07/14 08:55:53;;;;;;;1999.90;999.90;;;;;;;30.11;35.49;99395.03;8260823;28;20050;-77
2022/07/14 08:59:55;;;;;;;1999.90;999.90;;;;;;;29.72;36.00;99397.38;8274761;28;20474;-77
2022/07/14 09:03:57;;;;;;;1999.90;999.90;;;;;;;29.43;36.88;99389.91;8273765;28;20041;-77
2022/07/14 09:08:07;;;;;;;1999.90;999.90;;;;;;;29.41;38.17;99385.66;8245418;28;20038;-77
2022/07/14 09:12:09;;;;;;;1999.90;999.90;;;;;;;29.32;37.38;99381.94;8271897;28;20470;-78
2022/07/14 09:16:23;;;;;;;1999.90;999.90;;;;;;;29.45;37.64;99382.66;8239771;28;20046;-78
2022/07/14 09:20:32;;;;;;;1999.90;999.90;;;;;;;29.50;37.57;99382.28;8243854;28;20750;-78
2022/07/14 09:24:33;;;;;;;1999.90;999.90;;;;;;;29.60;37.10;99377.00;8259811;28;20125;-78
2022/07/14 09:28:47;;;;;;;1999.90;999.90;;;;;;;29.77;37.34;99366.56;8276456;28;20048;-78
2022/07/14 09:32:58;;;;;;;1999.90;999.90;;;;;;;29.88;37.90;99357.63;8262517;28;20042;-78
2022/07/14 09:37:10;;;;;;;1999.90;999.90;;;;;;;29.87;37.16;99357.78;8257568;28;20435;-77
2022/07/14 09:41:11;;;;;;;1999.90;999.90;;;;;;;29.83;37.24;99357.19;8272346;28;20707;-78
2022/07/14 09:45:14;;;;;;;1999.90;999.90;;;;;;;30.12;37.73;99356.56;8272800;28;20455;-77
2022/07/14 09:49:18;;;;;;;1999.90;999.90;;;;;;;30.24;35.78;99358.19;8236209;28;20056;-77
2022/07/14 09:53:26;;;;;;;1999.90;999.90;;;;;;;30.35;35.67;99350.09;8273489;28;20070;-76
2022/07/14 09:57:27;;;;;;;1999.90;999.90;;;;;;;30.57;35.65;99341.00;8274621;28;20057;-78
2022/07/14 10:01:29;;;;;;;1999.90;999.90;;;;;;;30.92;35.22;99340.59;8260097;28;20046;-78
2022/07/14 10:05:35;;;;;;;1999.90;999.90;;;;;;;31.34;34.89;99335.03;8260130;28;20409;-77
2022/07/14 10:09:39;;;;;;;1999.90;999.90;;;;;;;31.63;34.43;99324.31;8248013;28;20093;-78
2022/07/14 10:13:40;;;;;;;1999.90;999.90;;;;;;;32.02;34.06;99317.06;8282129;28;20069;-78
2022/07/14 10:17:43;;;;;;;1999.90;999.90;;;;;;;32.15;33.80;99314.94;8259276;28;20076;-78
2022/07/14 10:21:46;;;;;;;1999.90;999.90;;;;;;;31.93;33.05;99320.63;8276009;28;20080;-79
2022/07/14 10:25:52;;;;;;;1999.90;999.90;;;;;;;31.61;33.46;99310.19;8259809;28;20046;-77
2022/07/14 10:29:56;;;;;;;1999.90;999.90;;;;;;;31.56;33.57;99321.34;8269810;28;20669;-78
2022/07/14 10:34:31;;;;;;;1999.90;999.90;;;;;;;31.22;34.46;99316.38;8255605;28;20161;-78
2022/07/14 10:38:51;;;;;;;1999.90;999.90;;;;;;;31.05;36.03;99314.34;8271505;28;20130;-77
2022/07/14 10:43:04;;;;;;;1999.90;999.90;;;;;;;31.12;35.26;99301.25;8246313;28;20582;-78
2022/07/14 10:47:14;;;;;;;1999.90;999.90;;;;;;;31.25;34.49;99305.38;8271840;28;20097;-78
2022/07/14 10:51:31;;;;;;;1999.90;999.90;;;;;;;31.82;35.49;99294.78;8267421;28;21406;-77
2022/07/14 10:55:37;;;;;;;1999.90;999.90;;;;;;;32.16;32.68;99295.13;8258045;28;20426;-77
2022/07/14 10:59:40;;;;;;;1999.90;999.90;;;;;;;32.51;31.82;99291.75;8284178;28;20046;-77
2022/07/14 11:03:42;;;;;;;1999.90;999.90;;;;;;;32.84;30.51;99301.06;8261114;28;20057;-77
2022/07/14 11:07:52;;;;;;;1999.90;999.90;;;;;;;33.06;30.70;99291.75;8279097;28;20038;-77
2022/07/14 11:12:14;;;;;;;1999.90;999.90;;;;;;;33.37;29.72;99297.63;8282467;28;20425;-77
2022/07/14 11:16:15;;;;;;;1999.90;999.90;;;;;;;33.37;29.47;99294.09;8262720;28;20053;-77
2022/07/14 11:21:07;;;;;;;1999.90;999.90;;;;;;;33.29;28.55;99295.69;8275317;28;20053;-77
2022/07/14 11:25:39;;;;;;;1999.90;999.90;;;;;;;33.26;29.57;99292.44;8280824;28;20094;-77
2022/07/14 11:29:40;;;;;;;1999.90;999.90;;;;;;;33.47;30.04;99295.69;8260308;28;20054;-78
2022/07/14 11:38:25;;;;;;;1999.90;999.90;;;;;;;33.74;29.43;99280.41;8279927;28;20046;-78
2022/07/14 11:42:27;;;;;;;1999.90;999.90;;;;;;;33.84;27.61;99270.41;8267282;28;20600;-78
2022/07/14 11:46:29;;;;;;;1999.90;999.90;;;;;;;34.03;27.68;99275.59;8264798;28;20045;-77
2022/07/14 11:50:30;;;;;;;1999.90;999.90;;;;;;;34.29;27.86;99269.31;8261610;28;20052;-77
2022/07/14 11:54:33;;;;;;;1999.90;999.90;;;;;;;34.69;27.66;99257.91;8261334;28;20052;-78
2022/07/14 11:58:38;;;;;;;1999.90;999.90;;;;;;;35.02;28.31;99248.91;8262476;28;20042;-78
2022/07/14 12:02:52;;;;;;;1999.90;999.90;;;;;;;34.82;27.54;99259.09;8284704;28;20053;-77
2022/07/14 12:06:53;;;;;;;1999.90;999.90;;;;;;;34.70;28.25;99265.00;8264444;28;20042;-77
2022/07/14 12:11:04;;;;;;;1999.90;999.90;;;;;;;34.95;28.63;99255.13;8265659;28;20053;-77
2022/07/14 12:15:07;;;;;;;1999.90;999.90;;;;;;;35.01;27.59;99241.84;8270645;28;20057;-77
2022/07/14 12:19:09;;;;;;;1999.90;999.90;;;;;;;35.10;26.86;99234.56;8238984;28;20128;-78
2022/07/14 12:23:12;;;;;;;1999.90;999.90;;;;;;;34.71;27.63;99242.41;8275061;28;20499;-77
2022/07/14 12:27:14;;;;;;;1999.90;999.90;;;;;;;34.53;27.85;99219.09;8245001;28;20100;-77
2022/07/14 12:31:16;;;;;;;1999.90;999.90;;;;;;;34.68;28.60;99223.84;8258027;28;20052;-76
2022/07/14 12:35:22;;;;;;;1999.90;999.90;;;;;;;34.88;27.82;99232.53;8256160;28;20050;-76
2022/07/14 12:39:24;;;;;;;1999.90;999.90;;;;;;;34.97;27.72;99226.13;8269056;28;20057;-76
2022/07/14 12:43:27;;;;;;;1999.90;999.90;;;;;;;35.03;26.18;99229.00;8275428;28;20049;-77
2022/07/14 12:47:28;;;;;;;1999.90;999.90;;;;;;;35.03;26.31;99209.28;8257317;28;20054;-76
2022/07/14 12:51:35;;;;;;;1999.90;999.90;;;;;;;35.10;26.01;99227.31;8258979;28;20050;-77
2022/07/14 12:55:39;;;;;;;1999.90;999.90;;;;;;;35.08;25.87;99229.34;8272640;28;20046;-76
2022/07/14 12:59:40;;;;;;;1999.90;999.90;;;;;;;35.18;25.03;99215.66;8254902;28;20057;-76
2022/07/14 13:03:53;;;;;;;1999.90;999.90;;;;;;;34.98;25.04;99201.66;8245292;28;20237;-76
2022/07/14 13:07:54;;;;;;;1999.90;999.90;;;;;;;34.98;25.01;99212.44;8275532;28;20706;-77
2022/07/14 13:11:56;;;;;;;1999.90;999.90;;;;;;;34.90;25.01;99207.06;8256601;28;20048;-77
2022/07/14 13:16:33;;;;;;;1999.90;999.90;;;;;;;35.00;25.80;99213.13;8253453;28;20128;-76
2022/07/14 13:20:46;;;;;;;1999.90;999.90;;;;;;;34.67;25.26;99224.88;8165388;28;20101;-76
2022/07/14 13:24:55;;;;;;;1999.90;999.90;;;;;;;34.50;25.48;99214.03;8236202;28;20374;-76
2022/07/14 13:28:56;;;;;;;1999.90;999.90;;;;;;;34.62;25.25;99208.31;8272505;28;20580;-76
2022/07/14 13:32:58;;;;;;;1999.90;999.90;;;;;;;34.30;25.75;99196.41;8273656;28;20129;-76
2022/07/14 13:37:00;;;;;;;1999.90;999.90;;;;;;;34.03;25.86;99205.53;8270094;28;20547;-76
2022/07/14 13:41:03;;;;;;;1999.90;999.90;;;;;;;34.01;26.96;99198.63;8271009;28;20053;-76
2022/07/14 13:45:05;;;;;;;1999.90;999.90;;;;;;;33.91;27.64;99206.81;8271208;28;20125;-76
2022/07/14 13:49:07;;;;;;;1999.90;999.90;;;;;;;34.01;27.80;99214.78;8275930;28;20046;-76
2022/07/14 13:53:08;;;;;;;1999.90;999.90;;;;;;;34.05;25.74;99195.44;8265981;28;20049;-77
2022/07/14 13:57:10;;;;;;;1999.90;999.90;;;;;;;33.72;25.26;99202.47;8257479;28;20053;-77
2022/07/14 14:01:11;;;;;;;1999.90;999.90;;;;;;;33.66;24.76;99192.34;8240555;28;20145;-77
2022/07/14 14:05:13;;;;;;;1999.90;999.90;;;;;;;33.81;24.97;99187.19;8238318;28;20073;-76
2022/07/14 14:09:16;;;;;;;1999.90;999.90;;;;;;;33.37;25.31;99178.31;8259210;28;20440;-76
2022/07/14 14:13:23;;;;;;;1999.90;999.90;;;;;;;33.21;25.33;99189.78;8251834;28;20042;-76
2022/07/14 14:17:24;;;;;;;1999.90;999.90;;;;;;;33.03;25.20;99187.09;8255068;28;20376;-77
2022/07/14 14:21:27;;;;;;;1999.90;999.90;;;;;;;33.22;25.25;99184.25;8268931;28;20053;-77
2022/07/14 14:25:28;;;;;;;1999.90;999.90;;;;;;;33.90;25.60;99180.88;8277488;28;20128;-76
2022/07/14 14:29:30;;;;;;;1999.90;999.90;;;;;;;34.38;24.30;99182.97;8264683;28;20628;-76
2022/07/14 14:33:31;;;;;;;1999.90;999.90;;;;;;;34.71;23.85;99186.59;8267070;28;20050;-76
2022/07/14 14:37:33;;;;;;;1999.90;999.90;;;;;;;34.69;25.01;99179.69;8271544;28;20096;-77
2022/07/14 14:41:35;;;;;;;1999.90;999.90;;;;;;;34.38;24.72;99176.72;8236609;28;20081;-76
2022/07/14 14:45:37;;;;;;;1999.90;999.90;;;;;;;34.08;25.02;99178.94;8247829;28;20054;-77
2022/07/14 14:49:53;;;;;;;1999.90;999.90;;;;;;;34.14;25.07;99170.22;8272051;28;20057;-76
2022/07/14 14:53:54;;;;;;;1999.90;999.90;;;;;;;34.38;25.16;99187.50;8253212;28;20047;-76
2022/07/14 14:57:56;;;;;;;1999.90;999.90;;;;;;;34.45;25.04;99186.69;8273338;28;20126;-76
2022/07/14 15:01:57;;;;;;;1999.90;999.90;;;;;;;34.51;24.64;99194.13;8251819;28;20153;-76
2022/07/14 15:05:59;;;;;;;1999.90;999.90;;;;;;;34.52;24.41;99184.19;8275172;28;20457;-77
2022/07/14 15:10:02;;;;;;;1999.90;999.90;;;;;;;34.65;24.70;99195.34;8257233;28;20046;-76
2022/07/14 15:14:04;;;;;;;1999.90;999.90;;;;;;;34.82;24.08;99174.63;8250473;28;20038;-76
2022/07/14 15:18:05;;;;;;;1999.90;999.90;;;;;;;34.32;24.06;99197.06;8266982;28;20134;-76
2022/07/14 15:22:11;;;;;;;1999.90;999.90;;;;;;;34.35;24.54;99202.16;8260072;28;20084;-76
2022/07/14 15:26:19;;;;;;;1999.90;999.90;;;;;;;34.26;25.21;99219.28;8271251;28;20056;-77
2022/07/14 15:30:38;;;;;;;1999.90;999.90;;;;;;;33.83;25.31;99226.44;8239146;28;20052;-77
2022/07/14 15:34:40;;;;;;;1999.90;999.90;;;;;;;33.86;26.04;99225.31;8252010;28;20057;-75
2022/07/14 15:43:01;;;;;;;1999.90;999.90;;;;;;;33.76;26.46;99238.03;8254247;28;20038;-75
2022/07/14 15:47:03;;;;;;;1999.90;999.90;;;;;;;33.58;25.58;99248.84;8278506;28;20430;-75
2022/07/14 15:51:06;;;;;;;1999.90;999.90;;;;;;;33.56;26.50;99235.50;8278362;28;20054;-75
2022/07/14 15:55:10;;;;;;;1999.90;999.90;;;;;;;33.48;26.58;99248.91;8257662;28;20046;-75
2022/07/14 15:59:11;;;;;;;1999.90;999.90;;;;;;;33.24;25.80;99249.53;8262994;28;20122;-75
2022/07/14 16:03:12;;;;;;;1999.90;999.90;;;;;;;32.69;26.86;99264.94;8270164;28;20548;-76
2022/07/14 16:07:14;;;;;;;1999.90;999.90;;;;;;;32.53;27.39;99246.75;8257085;28;20064;-76
2022/07/14 16:11:16;;;;;;;1999.90;999.90;;;;;;;32.62;26.85;99245.00;8241520;28;20043;-76
2022/07/14 16:15:17;;;;;;;1999.90;999.90;;;;;;;32.59;27.31;99232.69;8260964;28;20093;-77
2022/07/14 16:19:19;;;;;;;1999.90;999.90;;;;;;;32.52;26.94;99244.22;8257001;28;20082;-76
2022/07/14 16:23:20;;;;;;;1999.90;999.90;;;;;;;32.76;27.50;99234.56;8258495;28;20739;-77
2022/07/14 16:27:22;;;;;;;1999.90;999.90;;;;;;;32.63;28.01;99239.47;8277736;28;20050;-76
2022/07/14 16:31:23;;;;;;;1999.90;999.90;;;;;;;32.30;27.53;99243.59;8275143;28;20529;-77
2022/07/14 16:35:25;;;;;;;1999.90;999.90;;;;;;;32.04;27.94;99242.56;8266388;28;20491;-77
2022/07/14 16:39:26;;;;;;;1999.90;999.90;;;;;;;31.80;28.38;99238.53;8245738;28;20041;-77
2022/07/14 16:43:28;;;;;;;1999.90;999.90;;;;;;;31.46;28.88;99239.97;8236320;28;20046;-77
2022/07/14 16:47:31;;;;;;;1999.90;999.90;;;;;;;31.18;29.23;99239.84;8239780;28;20148;-76
2022/07/14 16:51:33;;;;;;;1999.90;999.90;;;;;;;30.79;29.42;99246.13;8258422;28;20413;-76
2022/07/14 16:55:35;;;;;;;1999.90;999.90;;;;;;;30.65;29.86;99239.34;8272049;28;20045;-77
2022/07/14 16:59:36;;;;;;;1999.90;999.90;;;;;;;30.52;30.94;99236.91;8261457;28;20057;-77
2022/07/14 17:03:37;;;;;;;1999.90;999.90;;;;;;;30.36;30.13;99240.09;8279084;28;20439;-76
2022/07/14 17:07:39;;;;;;;1999.90;999.90;;;;;;;30.25;30.92;99247.38;8274705;28;20046;-77
2022/07/14 17:11:41;;;;;;;1999.90;999.90;;;;;;;30.03;30.32;99253.72;8259108;28;20726;-77
2022/07/14 17:15:44;;;;;;;1999.90;999.90;;;;;;;29.90;30.76;99258.44;8249447;28;20068;-76
2022/07/14 17:19:45;;;;;;;1999.90;999.90;;;;;;;29.76;30.86;99257.78;8255073;28;20770;-76
2022/07/14 17:23:49;;;;;;;1999.90;999.90;;;;;;;29.64;31.49;99255.34;8280968;28;20060;-76
2022/07/14 17:27:51;;;;;;;1999.90;999.90;;;;;;;29.52;32.21;99265.25;8276885;28;20139;-76
2022/07/14 17:31:52;;;;;;;1999.90;999.90;;;;;;;29.38;31.57;99258.34;8241797;28;20077;-76
2022/07/14 17:35:56;;;;;;;1999.90;999.90;;;;;;;29.28;32.83;99261.94;8274108;28;20431;-76
2022/07/14 17:39:58;;;;;;;1999.90;999.90;;;;;;;29.17;31.71;99265.50;8277520;28;20142;-76
2022/07/14 17:43:59;;;;;;;1999.90;999.90;;;;;;;29.10;32.26;99262.50;8254810;28;20046;-76
2022/07/14 17:48:01;;;;;;;1999.90;999.90;;;;;;;29.00;32.29;99263.38;8234629;28;20073;-76
2022/07/14 17:52:11;;;;;;;1999.90;999.90;;;;;;;28.88;31.62;99273.25;8256603;28;20085;-76
2022/07/14 17:56:20;;;;;;;1999.90;999.90;;;;;;;28.73;32.27;99271.81;8260157;28;20161;-76
2022/07/14 18:00:22;;;;;;;1999.90;999.90;;;;;;;28.64;31.88;99292.09;8272520;28;20727;-78
2022/07/14 18:04:23;;;;;;;1999.90;999.90;;;;;;;28.52;31.71;99293.06;8245349;28;20129;-77
2022/07/14 18:08:25;;;;;;;1999.90;999.90;;;;;;;28.33;31.61;99292.84;8274514;28;20042;-77
2022/07/14 18:12:27;;;;;;;1999.90;999.90;;;;;;;28.20;32.17;99299.13;8258739;28;20038;-77
2022/07/14 18:16:29;;;;;;;1999.90;999.90;;;;;;;28.07;32.40;99309.06;8271621;28;20187;-77
2022/07/14 18:20:33;;;;;;;1999.90;999.90;;;;;;;27.92;33.27;99311.09;8261372;28;20052;-77
2022/07/14 18:24:34;;;;;;;1999.90;999.90;;;;;;;27.76;33.56;99312.38;8275168;28;20101;-77
2022/07/14 18:28:35;;;;;;;;;;;;;;;27.51;32.66;99316.91;8278533;28;20042;-76